Time;durP1;ratioP1;P1;durP2;ratioP2;P2;SDS_P1;SDS_P2;PMS_P1;PMS_P2;Temp;Humidity;BMP_temperature;BMP_pressure;BME280_temperature;BME280_humidity;BME280_pressure;Samples;Min_cycle;Max_cycle;Signal;HPM_P1;HPM_P2
2021/04/20 00:00:28;;;;;;;31.80;30.05;;;;;;;;;;5030606;28;20038;-52
2021/04/20 00:02:55;;;;;;;31.48;29.92;;;;;;;;;;5030378;28;20167;-51
2021/04/20 00:05:21;;;;;;;27.13;26.08;;;;;;;;;;5028509;28;20041;-51
2021/04/20 00:07:47;;;;;;;28.92;27.77;;;;;;;;;;5030813;28;20705;-50
2021/04/20 00:10:15;;;;;;;29.77;28.38;;;;;;;;;;5027523;28;20030;-52
2021/04/20 00:12:41;;;;;;;28.77;27.67;;;;;;;;;;5028811;28;20046;-52
2021/04/20 00:15:10;;;;;;;28.80;27.50;;;;;;;;;;5020475;28;20077;-52
2021/04/20 00:17:36;;;;;;;29.60;28.02;;;;;;;;;;5028040;28;20041;-51
2021/04/20 00:20:05;;;;;;;34.65;32.55;;;;;;;;;;5029991;28;20065;-52
2021/04/20 00:22:32;;;;;;;33.95;31.90;;;;;;;;;;5024321;28;20088;-52
2021/04/20 00:24:58;;;;;;;33.15;31.27;;;;;;;;;;5017457;28;20122;-50
2021/04/20 00:27:25;;;;;;;31.75;30.15;;;;;;;;;;5027383;28;20127;-51
2021/04/20 00:29:51;;;;;;;30.27;29.00;;;;;;;;;;5028325;28;20041;-52
2021/04/20 00:32:17;;;;;;;32.38;30.77;;;;;;;;;;5030270;28;20073;-52
2021/04/20 00:34:43;;;;;;;32.25;30.65;;;;;;;;;;5021764;28;20042;-50
2021/04/20 00:37:10;;;;;;;30.77;29.05;;;;;;;;;;5021921;28;20033;-51
2021/04/20 00:39:37;;;;;;;29.75;28.52;;;;;;;;;;5028540;28;20037;-52
2021/04/20 00:42:08;;;;;;;27.92;26.73;;;;;;;;;;5027258;28;20057;-52
2021/04/20 00:44:34;;;;;;;29.02;27.77;;;;;;;;;;5015757;28;20048;-52
2021/04/20 00:47:01;;;;;;;30.67;29.33;;;;;;;;;;5022340;28;20100;-49
2021/04/20 00:49:28;;;;;;;30.83;29.52;;;;;;;;;;5019271;28;20037;-52
2021/04/20 00:51:55;;;;;;;31.00;29.63;;;;;;;;;;5029507;28;20042;-50
2021/04/20 00:54:21;;;;;;;32.28;30.98;;;;;;;;;;5026386;28;20041;-51
2021/04/20 00:56:48;;;;;;;32.70;31.20;;;;;;;;;;5029070;28;20505;-50
2021/04/20 00:59:14;;;;;;;30.58;29.45;;;;;;;;;;5027131;28;20041;-49
2021/04/20 01:01:41;;;;;;;31.95;30.63;;;;;;;;;;5028058;28;20111;-48
2021/04/20 01:04:14;;;;;;;33.58;32.10;;;;;;;;;;5014746;28;20510;-52
2021/04/20 01:06:44;;;;;;;29.58;28.27;;;;;;;;;;5027599;28;20148;-51
2021/04/20 01:09:11;;;;;;;27.75;26.70;;;;;;;;;;5028223;28;20481;-52
2021/04/20 01:11:38;;;;;;;28.85;27.88;;;;;;;;;;5033489;28;20440;-51
2021/04/20 01:14:05;;;;;;;31.52;30.00;;;;;;;;;;5032919;28;20033;-52
2021/04/20 01:16:35;;;;;;;26.27;25.50;;;;;;;;;;5029237;28;20516;-52
2021/04/20 01:19:03;;;;;;;27.67;26.77;;;;;;;;;;5028782;28;20489;-50
2021/04/20 01:21:29;;;;;;;27.73;26.65;;;;;;;;;;5030871;28;20048;-51
2021/04/20 01:24:07;;;;;;;24.73;23.98;;;;;;;;;;5033750;28;20045;-49
2021/04/20 01:26:38;;;;;;;31.55;30.38;;;;;;;;;;5027258;28;20044;-51
2021/04/20 01:29:05;;;;;;;29.23;28.20;;;;;;;;;;5028119;28;20112;-50
2021/04/20 01:31:33;;;;;;;31.30;30.00;;;;;;;;;;5031796;28;20068;-52
2021/04/20 01:33:59;;;;;;;31.52;30.23;;;;;;;;;;5032547;28;20896;-50
2021/04/20 01:36:26;;;;;;;31.77;30.27;;;;;;;;;;5018752;28;20096;-49
2021/04/20 01:38:53;;;;;;;33.38;31.65;;;;;;;;;;5029280;28;20041;-51
2021/04/20 01:41:20;;;;;;;33.30;31.75;;;;;;;;;;5032610;28;20493;-49
2021/04/20 01:43:47;;;;;;;30.63;29.10;;;;;;;;;;5021625;28;20115;-51
2021/04/20 01:46:13;;;;;;;32.42;31.27;;;;;;;;;;5024113;28;20386;-52
2021/04/20 01:48:40;;;;;;;30.48;29.33;;;;;;;;;;5016276;28;20492;-52
2021/04/20 01:51:07;;;;;;;31.42;30.23;;;;;;;;;;5029868;28;20030;-50
2021/04/20 01:53:33;;;;;;;28.95;27.85;;;;;;;;;;5031278;28;20716;-52
2021/04/20 01:56:00;;;;;;;29.65;28.42;;;;;;;;;;5022352;28;20038;-52
2021/04/20 01:58:28;;;;;;;30.75;29.52;;;;;;;;;;5031182;28;20123;-52
2021/04/20 02:00:54;;;;;;;29.10;28.13;;;;;;;;;;5019220;28;20394;-49
2021/04/20 02:03:25;;;;;;;31.38;30.10;;;;;;;;;;5029478;28;20045;-52
2021/04/20 02:05:51;;;;;;;33.92;32.22;;;;;;;;;;5031298;28;20057;-52
2021/04/20 02:08:18;;;;;;;32.03;30.50;;;;;;;;;;5019736;28;20077;-52
2021/04/20 02:10:44;;;;;;;31.17;29.77;;;;;;;;;;5029667;28;20052;-51
2021/04/20 02:13:11;;;;;;;31.70;30.45;;;;;;;;;;5024467;28;20040;-50
2021/04/20 02:15:37;;;;;;;32.97;31.48;;;;;;;;;;5031080;28;20037;-49
2021/04/20 02:18:07;;;;;;;33.83;32.45;;;;;;;;;;5030628;28;20033;-50
2021/04/20 02:20:34;;;;;;;29.88;28.58;;;;;;;;;;5031322;28;20049;-50
2021/04/20 02:23:00;;;;;;;30.10;28.90;;;;;;;;;;5031862;28;20034;-51
2021/04/20 02:25:27;;;;;;;31.42;30.05;;;;;;;;;;5029518;28;20140;-46
2021/04/20 02:27:54;;;;;;;31.73;30.35;;;;;;;;;;5023833;28;20046;-49
2021/04/20 02:30:20;;;;;;;29.27;28.17;;;;;;;;;;5030538;28;20029;-52
2021/04/20 02:32:46;;;;;;;29.55;28.50;;;;;;;;;;5032258;28;20042;-50
2021/04/20 02:35:14;;;;;;;34.00;32.50;;;;;;;;;;5028385;28;20033;-50
2021/04/20 02:37:41;;;;;;;30.85;29.73;;;;;;;;;;5023142;28;20115;-52
2021/04/20 02:40:09;;;;;;;34.58;33.17;;;;;;;;;;5028507;28;20049;-52
2021/04/20 02:42:37;;;;;;;31.42;30.33;;;;;;;;;;5024935;28;20048;-50
2021/04/20 02:45:04;;;;;;;32.75;31.58;;;;;;;;;;5031734;28;20057;-52
2021/04/20 02:47:34;;;;;;;31.55;30.27;;;;;;;;;;5030006;28;20041;-51
2021/04/20 02:50:01;;;;;;;33.97;32.50;;;;;;;;;;5032432;28;20038;-51
2021/04/20 02:52:28;;;;;;;30.23;29.08;;;;;;;;;;5030627;28;20532;-52
2021/04/20 02:54:59;;;;;;;31.25;30.15;;;;;;;;;;5030269;28;20068;-51
2021/04/20 02:57:27;;;;;;;32.40;31.00;;;;;;;;;;5023539;28;20040;-51
2021/04/20 02:59:53;;;;;;;31.52;30.35;;;;;;;;;;5029172;28;20041;-51
2021/04/20 03:02:20;;;;;;;35.47;33.97;;;;;;;;;;5027734;28;20040;-51
2021/04/20 03:04:49;;;;;;;34.20;32.60;;;;;;;;;;5032154;28;20369;-50
2021/04/20 03:07:15;;;;;;;32.83;31.63;;;;;;;;;;5028238;28;20087;-51
2021/04/20 03:09:42;;;;;;;29.90;28.45;;;;;;;;;;5015226;28;20037;-51
2021/04/20 03:12:08;;;;;;;32.53;31.13;;;;;;;;;;5029019;28;20049;-52
2021/04/20 03:14:35;;;;;;;28.70;27.75;;;;;;;;;;5030389;28;21408;-50
2021/04/20 03:17:01;;;;;;;30.27;29.17;;;;;;;;;;5017331;28;20041;-49
2021/04/20 03:19:28;;;;;;;29.88;28.88;;;;;;;;;;5023989;28;20033;-52
2021/04/20 03:21:55;;;;;;;30.02;29.13;;;;;;;;;;5017088;28;20099;-49
2021/04/20 03:24:30;;;;;;;31.52;30.23;;;;;;;;;;5029116;28;20068;-51
2021/04/20 03:26:57;;;;;;;31.52;30.52;;;;;;;;;;5026328;28;20088;-52
2021/04/20 03:29:23;;;;;;;30.40;29.50;;;;;;;;;;5022209;28;20509;-50
2021/04/20 03:31:50;;;;;;;32.78;31.83;;;;;;;;;;5025703;28;20077;-51
2021/04/20 03:34:20;;;;;;;31.15;30.05;;;;;;;;;;5016253;28;20044;-51
2021/04/20 03:37:08;;;;;;;32.22;31.02;;;;;;;;;;5019913;28;20036;-50
2021/04/20 03:39:38;;;;;;;28.17;27.27;;;;;;;;;;5026067;28;20477;-50
2021/04/20 03:42:07;;;;;;;32.90;31.90;;;;;;;;;;5029777;28;20095;-52
2021/04/20 03:44:35;;;;;;;30.90;29.98;;;;;;;;;;5026899;28;20124;-49
2021/04/20 03:47:03;;;;;;;30.60;29.73;;;;;;;;;;5021798;28;20041;-50
2021/04/20 03:49:32;;;;;;;31.35;30.25;;;;;;;;;;5030140;28;20038;-52
2021/04/20 03:52:00;;;;;;;33.65;32.30;;;;;;;;;;5028609;28;20065;-50
2021/04/20 03:54:27;;;;;;;31.73;30.60;;;;;;;;;;5030107;28;20057;-52
2021/04/20 03:56:55;;;;;;;32.70;31.58;;;;;;;;;;5030207;28;20097;-52
2021/04/20 03:59:22;;;;;;;33.85;32.75;;;;;;;;;;5030125;28;20053;-52
2021/04/20 04:01:49;;;;;;;31.30;30.30;;;;;;;;;;5029273;28;20041;-53
2021/04/20 04:04:17;;;;;;;32.50;31.30;;;;;;;;;;5027093;28;20045;-49
2021/04/20 04:06:44;;;;;;;32.95;31.95;;;;;;;;;;5029411;28;20544;-51
2021/04/20 04:09:11;;;;;;;31.25;30.20;;;;;;;;;;5019022;28;20128;-49
2021/04/20 04:11:43;;;;;;;35.90;34.25;;;;;;;;;;5028986;28;20025;-50
2021/04/20 04:14:10;;;;;;;32.00;30.70;;;;;;;;;;5021165;28;20029;-50
2021/04/20 04:16:37;;;;;;;31.05;29.77;;;;;;;;;;5026516;28;20490;-52
2021/04/20 04:19:04;;;;;;;34.50;33.30;;;;;;;;;;5015175;28;20048;-50
2021/04/20 04:21:52;;;;;;;34.20;33.00;;;;;;;;;;5030609;28;20232;-48
2021/04/20 04:24:19;;;;;;;32.70;31.55;;;;;;;;;;5027082;28;20041;-51
2021/04/20 04:26:49;;;;;;;30.42;29.25;;;;;;;;;;5027874;28;20041;-52
2021/04/20 04:29:16;;;;;;;33.53;32.42;;;;;;;;;;5025932;28;20394;-50
2021/04/20 04:31:44;;;;;;;32.50;31.40;;;;;;;;;;5029721;28;20069;-50
2021/04/20 04:34:15;;;;;;;34.17;32.83;;;;;;;;;;5016161;28;20038;-52
2021/04/20 04:36:41;;;;;;;33.38;32.10;;;;;;;;;;5027353;28;20478;-51
2021/04/20 04:39:15;;;;;;;34.45;33.03;;;;;;;;;;5027604;28;20038;-52
2021/04/20 04:41:42;;;;;;;34.22;32.67;;;;;;;;;;5029536;28;20409;-51
2021/04/20 04:44:11;;;;;;;33.58;32.13;;;;;;;;;;5025850;28;20052;-51
2021/04/20 04:46:40;;;;;;;33.75;32.35;;;;;;;;;;5024482;28;20045;-53
2021/04/20 04:49:07;;;;;;;34.03;32.53;;;;;;;;;;5027162;28;20034;-52
2021/04/20 04:51:35;;;;;;;35.08;33.63;;;;;;;;;;5024456;28;20061;-52
2021/04/20 04:54:01;;;;;;;36.22;34.83;;;;;;;;;;5033619;28;20045;-52
2021/04/20 04:56:28;;;;;;;35.17;33.58;;;;;;;;;;5029862;28;20048;-51
2021/04/20 04:58:54;;;;;;;31.83;30.67;;;;;;;;;;5031565;28;20042;-52
2021/04/20 05:01:22;;;;;;;32.75;31.65;;;;;;;;;;5030952;28;20461;-52
2021/04/20 05:03:48;;;;;;;35.30;34.10;;;;;;;;;;5024844;28;20037;-52
2021/04/20 05:06:16;;;;;;;31.60;30.38;;;;;;;;;;5024823;28;20126;-51
2021/04/20 05:08:43;;;;;;;33.08;31.77;;;;;;;;;;5028932;28;20050;-50
2021/04/20 05:11:12;;;;;;;33.70;32.42;;;;;;;;;;5017842;28;20405;-52
2021/04/20 05:13:38;;;;;;;33.05;31.88;;;;;;;;;;5032866;28;20051;-50
2021/04/20 05:16:05;;;;;;;33.35;32.13;;;;;;;;;;5031087;28;20065;-51
2021/04/20 05:18:33;;;;;;;31.55;30.40;;;;;;;;;;5015640;28;20422;-50
2021/04/20 05:20:59;;;;;;;31.98;30.83;;;;;;;;;;5028105;28;20042;-49
2021/04/20 05:23:25;;;;;;;31.38;30.27;;;;;;;;;;5032394;28;20033;-57
2021/04/20 05:25:52;;;;;;;30.48;29.42;;;;;;;;;;5032485;28;20037;-57
2021/04/20 05:28:22;;;;;;;32.70;31.40;;;;;;;;;;5030621;28;20033;-57
2021/04/20 05:30:48;;;;;;;34.08;32.67;;;;;;;;;;5020836;28;20076;-57
2021/04/20 05:33:16;;;;;;;36.25;34.42;;;;;;;;;;5028582;28;20486;-57
2021/04/20 05:35:42;;;;;;;36.08;34.30;;;;;;;;;;5031979;28;20513;-56
2021/04/20 05:38:09;;;;;;;33.92;32.28;;;;;;;;;;5019148;28;20049;-57
2021/04/20 05:40:41;;;;;;;35.20;33.42;;;;;;;;;;5025797;28;20061;-56
2021/04/20 05:43:07;;;;;;;36.03;34.00;;;;;;;;;;5030679;28;20042;-57
2021/04/20 05:45:33;;;;;;;39.38;37.17;;;;;;;;;;5033087;28;20156;-58
2021/04/20 05:48:00;;;;;;;35.40;33.67;;;;;;;;;;5031574;28;20037;-57
2021/04/20 05:50:30;;;;;;;35.53;33.90;;;;;;;;;;5018190;28;20132;-58
2021/04/20 05:52:57;;;;;;;49.53;45.38;;;;;;;;;;5028701;28;20071;-57
2021/04/20 05:55:24;;;;;;;57.10;51.88;;;;;;;;;;5029915;28;20037;-57
2021/04/20 05:57:51;;;;;;;117.38;90.03;;;;;;;;;;5040683;28;20045;-58
2021/04/20 06:00:18;;;;;;;54.53;49.45;;;;;;;;;;5032949;28;20095;-58
2021/04/20 06:02:46;;;;;;;36.78;34.70;;;;;;;;;;5016667;28;20076;-59
2021/04/20 06:05:17;;;;;;;34.08;32.10;;;;;;;;;;5029249;28;20076;-59
2021/04/20 06:07:45;;;;;;;29.65;28.55;;;;;;;;;;5031456;28;20034;-57
2021/04/20 06:10:12;;;;;;;26.95;26.10;;;;;;;;;;5032886;28;20129;-58
2021/04/20 06:12:39;;;;;;;31.00;29.63;;;;;;;;;;5030117;28;20045;-58
2021/04/20 06:15:06;;;;;;;30.33;29.13;;;;;;;;;;5019225;28;20478;-56
2021/04/20 06:17:34;;;;;;;31.08;30.08;;;;;;;;;;5026594;28;20445;-58
2021/04/20 06:20:01;;;;;;;31.63;30.35;;;;;;;;;;5029599;28;20593;-58
2021/04/20 06:22:27;;;;;;;29.67;28.75;;;;;;;;;;5030934;28;20044;-57
2021/04/20 06:24:54;;;;;;;30.10;29.05;;;;;;;;;;5028769;28;20087;-56
2021/04/20 06:27:20;;;;;;;26.15;25.38;;;;;;;;;;5014354;28;20046;-58
2021/04/20 06:29:47;;;;;;;26.35;25.65;;;;;;;;;;5032534;28;20091;-58
2021/04/20 06:32:13;;;;;;;25.58;24.88;;;;;;;;;;5025067;28;20057;-57
2021/04/20 06:34:40;;;;;;;24.60;23.70;;;;;;;;;;5031261;28;20033;-58
2021/04/20 06:37:08;;;;;;;25.27;24.77;;;;;;;;;;5028470;28;20087;-58
2021/04/20 06:39:36;;;;;;;23.40;22.90;;;;;;;;;;5029877;28;20049;-57
2021/04/20 06:42:03;;;;;;;27.35;26.55;;;;;;;;;;5023277;28;20567;-57
2021/04/20 06:44:35;;;;;;;26.45;25.58;;;;;;;;;;5020605;28;20038;-57
2021/04/20 06:47:15;;;;;;;26.67;25.98;;;;;;;;;;5031493;28;20061;-55
2021/04/20 06:49:52;;;;;;;19.67;19.20;;;;;;;;;;5030143;28;20057;-58
2021/04/20 06:52:27;;;;;;;21.95;21.35;;;;;;;;;;5030273;28;20065;-58
2021/04/20 06:55:13;;;;;;;15.32;14.63;;;;;;;;;;5016100;28;20034;-58
2021/04/20 06:57:43;;;;;;;16.70;16.30;;;;;;;;;;5030709;28;20378;-57
2021/04/20 07:00:16;;;;;;;8.98;8.57;;;;;;;;;;5029990;28;20585;-57
2021/04/20 07:02:50;;;;;;;7.15;6.95;;;;;;;;;;5031049;28;20096;-57
2021/04/20 07:05:37;;;;;;;6.43;6.32;;;;;;;;;;5029740;28;20087;-57
2021/04/20 07:08:03;;;;;;;6.43;6.32;;;;;;;;;;5019172;28;20505;-57
2021/04/20 07:10:34;;;;;;;6.57;6.38;;;;;;;;;;5020167;28;20046;-57
2021/04/20 07:13:04;;;;;;;8.45;8.25;;;;;;;;;;5022539;28;20561;-57
2021/04/20 07:15:31;;;;;;;6.50;6.35;;;;;;;;;;5028267;28;20121;-57
2021/04/20 07:18:04;;;;;;;9.65;6.63;;;;;;;;;;5023850;28;20046;-57
2021/04/20 07:20:36;;;;;;;6.03;5.72;;;;;;;;;;5028157;28;20482;-58
2021/04/20 07:23:02;;;;;;;7.03;6.78;;;;;;;;;;5030785;28;20140;-57
2021/04/20 07:25:38;;;;;;;5.28;5.07;;;;;;;;;;5029153;28;20068;-57
2021/04/20 07:28:17;;;;;;;7.45;7.15;;;;;;;;;;5028538;28;20121;-58
2021/04/20 07:30:49;;;;;;;7.50;7.20;;;;;;;;;;5030895;28;20045;-58
2021/04/20 07:33:21;;;;;;;7.10;6.88;;;;;;;;;;5024426;28;20042;-57
2021/04/20 07:36:09;;;;;;;7.53;7.32;;;;;;;;;;5012234;28;20068;-57
2021/04/20 07:38:39;;;;;;;10.07;9.45;;;;;;;;;;5020128;28;20041;-57
2021/04/20 07:41:09;;;;;;;8.43;7.78;;;;;;;;;;5022453;28;20041;-57
2021/04/20 07:43:45;;;;;;;7.95;7.65;;;;;;;;;;5030928;28;20033;-57
2021/04/20 07:46:13;;;;;;;8.05;7.75;;;;;;;;;;5028515;28;20061;-58
2021/04/20 07:48:50;;;;;;;7.50;7.05;;;;;;;;;;5030675;28;20053;-56
2021/04/20 07:51:17;;;;;;;4.30;4.20;;;;;;;;;;5026262;28;20071;-57
2021/04/20 07:53:48;;;;;;;5.85;5.30;;;;;;;;;;5029186;28;20041;-58
2021/04/20 07:56:28;;;;;;;4.45;4.35;;;;;;;;;;5030768;28;20042;-58
2021/04/20 07:58:55;;;;;;;6.97;6.45;;;;;;;;;;5019933;28;20100;-58
2021/04/20 08:01:32;;;;;;;2.78;2.72;;;;;;;;;;5022106;28;20060;-57
2021/04/20 08:04:11;;;;;;;3.65;3.53;;;;;;;;;;5013016;28;20061;-58
2021/04/20 08:06:38;;;;;;;3.72;3.47;;;;;;;;;;5022548;28;20050;-58
2021/04/20 08:09:25;;;;;;;3.83;3.72;;;;;;;;;;5018892;28;20418;-57
2021/04/20 08:12:01;;;;;;;3.72;3.60;;;;;;;;;;5030871;28;20041;-56
2021/04/20 08:14:35;;;;;;;3.60;3.50;;;;;;;;;;5023705;28;20544;-57
2021/04/20 08:17:07;;;;;;;4.50;4.30;;;;;;;;;;5021276;28;20040;-58
2021/04/20 08:19:41;;;;;;;3.63;3.53;;;;;;;;;;5024611;28;20132;-58
2021/04/20 08:22:08;;;;;;;3.80;3.40;;;;;;;;;;5032654;28;20072;-57
2021/04/20 08:24:41;;;;;;;3.72;3.63;;;;;;;;;;5033931;28;20034;-58
2021/04/20 08:27:25;;;;;;;4.35;4.10;;;;;;;;;;5031955;28;20037;-58
2021/04/20 08:29:53;;;;;;;3.20;3.05;;;;;;;;;;5031679;28;20042;-58
2021/04/20 08:32:22;;;;;;;3.80;3.60;;;;;;;;;;5019305;28;20118;-58
2021/04/20 08:34:56;;;;;;;6.03;3.83;;;;;;;;;;5026099;28;20045;-58
2021/04/20 08:37:33;;;;;;;3.70;3.60;;;;;;;;;;5022969;28;20029;-58
2021/04/20 08:40:17;;;;;;;4.22;3.30;;;;;;;;;;5034504;28;20045;-56
2021/04/20 08:43:03;;;;;;;3.92;3.72;;;;;;;;;;5033563;28;20038;-58
2021/04/20 08:45:39;;;;;;;3.85;3.53;;;;;;;;;;5033035;28;20049;-58
2021/04/20 08:48:36;;;;;;;3.70;3.60;;;;;;;;;;5021073;28;20033;-58
2021/04/20 08:51:35;;;;;;;4.20;3.92;;;;;;;;;;5028050;28;20062;-59
2021/04/20 08:54:08;;;;;;;5.22;5.03;;;;;;;;;;5026429;28;20412;-58
2021/04/20 08:56:40;;;;;;;6.70;6.18;;;;;;;;;;5032142;28;20137;-58
2021/04/20 08:59:25;;;;;;;6.15;5.70;;;;;;;;;;5031589;28;20053;-58
2021/04/20 09:02:07;;;;;;;5.03;4.57;;;;;;;;;;5029827;28;21055;-60
2021/04/20 09:04:46;;;;;;;5.00;4.70;;;;;;;;;;5032003;28;20042;-58
2021/04/20 09:07:30;;;;;;;5.72;5.40;;;;;;;;;;5030848;28;20540;-58
2021/04/20 09:10:03;;;;;;;6.15;5.15;;;;;;;;;;5029480;28;20100;-58
2021/04/20 09:12:30;;;;;;;5.70;5.38;;;;;;;;;;5030928;28;20057;-58
2021/04/20 09:14:59;;;;;;;4.93;4.63;;;;;;;;;;5030673;28;20049;-58
2021/04/20 09:17:30;;;;;;;4.20;3.90;;;;;;;;;;5028857;28;20057;-58
2021/04/20 09:19:58;;;;;;;4.03;3.83;;;;;;;;;;5027512;28;20137;-58
2021/04/20 09:22:40;;;;;;;2.35;2.25;;;;;;;;;;5026417;28;20053;-58
2021/04/20 09:25:18;;;;;;;1.70;1.70;;;;;;;;;;5031564;28;20532;-59
2021/04/20 09:27:46;;;;;;;2.05;2.03;;;;;;;;;;5030587;28;20100;-59
2021/04/20 09:30:15;;;;;;;3.53;3.28;;;;;;;;;;5028598;28;20045;-59
2021/04/20 09:32:46;;;;;;;3.38;3.17;;;;;;;;;;5031795;28;20054;-59
2021/04/20 09:35:13;;;;;;;3.15;3.05;;;;;;;;;;5026321;28;20034;-57
2021/04/20 09:37:41;;;;;;;3.38;3.25;;;;;;;;;;5029549;28;20037;-59
2021/04/20 09:40:08;;;;;;;2.58;2.47;;;;;;;;;;5024800;28;20037;-58
2021/04/20 09:42:35;;;;;;;3.05;2.95;;;;;;;;;;5029545;28;20037;-59
2021/04/20 09:45:17;;;;;;;3.67;3.58;;;;;;;;;;5031817;28;20050;-58
2021/04/20 09:47:51;;;;;;;3.03;2.90;;;;;;;;;;5022974;28;20046;-58
2021/04/20 09:50:33;;;;;;;2.28;2.10;;;;;;;;;;5028390;28;20046;-59
2021/04/20 09:53:11;;;;;;;1.98;1.98;;;;;;;;;;5021958;28;20486;-58
2021/04/20 09:56:02;;;;;;;2.00;1.90;;;;;;;;;;5031900;28;20092;-59
2021/04/20 09:58:31;;;;;;;1.20;1.20;;;;;;;;;;5030655;28;20437;-59
2021/04/20 10:01:04;;;;;;;1.50;1.50;;;;;;;;;;5032071;28;20556;-57
2021/04/20 10:03:47;;;;;;;1.10;1.10;;;;;;;;;;5031914;28;20116;-59
2021/04/20 10:07:02;;;;;;;1.38;1.38;;;;;;;;;;5027052;28;20046;-59
2021/04/20 10:09:30;;;;;;;1.35;1.35;;;;;;;;;;5023110;28;20046;-59
2021/04/20 10:11:56;;;;;;;1.10;1.10;;;;;;;;;;5032111;28;20043;-60
2021/04/20 10:14:29;;;;;;;2.38;1.10;;;;;;;;;;5031715;28;20029;-59
2021/04/20 10:17:15;;;;;;;1.20;1.20;;;;;;;;;;5031879;28;20045;-59
2021/04/20 10:19:41;;;;;;;1.10;1.10;;;;;;;;;;5027008;28;20045;-59
2021/04/20 10:22:13;;;;;;;1.63;1.63;;;;;;;;;;5029524;28;20033;-59
2021/04/20 10:24:46;;;;;;;1.20;1.20;;;;;;;;;;5022115;28;20092;-57
2021/04/20 10:27:14;;;;;;;1.20;1.10;;;;;;;;;;5026926;28;20069;-60
2021/04/20 10:30:19;;;;;;;1.27;1.13;;;;;;;;;;5021615;28;20070;-59
2021/04/20 10:32:49;;;;;;;1.00;1.00;;;;;;;;;;5037526;28;20514;-60
2021/04/20 10:35:20;;;;;;;1.17;1.10;;;;;;;;;;5023004;28;20079;-59
2021/04/20 10:37:50;;;;;;;1.17;1.17;;;;;;;;;;5017161;28;20049;-59
2021/04/20 10:40:30;;;;;;;1.10;1.00;;;;;;;;;;5028027;28;20045;-59
2021/04/20 10:43:01;;;;;;;1.20;1.20;;;;;;;;;;5027004;28;20410;-59
2021/04/20 10:45:27;;;;;;;1.00;1.00;;;;;;;;;;5028716;28;20441;-59
2021/04/20 10:47:55;;;;;;;1.00;1.00;;;;;;;;;;5026827;28;20059;-59
2021/04/20 10:50:23;;;;;;;1.00;1.00;;;;;;;;;;5025820;28;20041;-59
2021/04/20 10:53:08;;;;;;;1.00;1.00;;;;;;;;;;5029308;28;20069;-59
2021/04/20 10:55:36;;;;;;;0.80;0.80;;;;;;;;;;5026655;28;20132;-59
2021/04/20 10:58:05;;;;;;;0.80;0.80;;;;;;;;;;5027368;28;20069;-58
2021/04/20 11:00:32;;;;;;;0.80;0.80;;;;;;;;;;5025490;28;20041;-59
2021/04/20 11:02:59;;;;;;;0.80;0.80;;;;;;;;;;5028373;28;20045;-59
2021/04/20 11:05:27;;;;;;;0.70;0.70;;;;;;;;;;5020320;28;20042;-60
2021/04/20 11:07:54;;;;;;;0.80;0.80;;;;;;;;;;5027164;28;20065;-59
2021/04/20 11:10:25;;;;;;;0.80;0.80;;;;;;;;;;5016675;28;20045;-59
2021/04/20 11:12:52;;;;;;;0.80;0.80;;;;;;;;;;5029833;28;20128;-59
2021/04/20 11:15:24;;;;;;;0.82;0.82;;;;;;;;;;5030252;28;20079;-58
2021/04/20 11:17:50;;;;;;;0.80;0.80;;;;;;;;;;5019125;28;20034;-59
2021/04/20 11:20:28;;;;;;;0.90;0.90;;;;;;;;;;5030239;28;20042;-58
2021/04/20 11:23:01;;;;;;;0.73;0.73;;;;;;;;;;5030118;28;20088;-58
2021/04/20 11:25:32;;;;;;;0.82;0.82;;;;;;;;;;5030261;28;20046;-59
2021/04/20 11:28:00;;;;;;;0.95;0.95;;;;;;;;;;5029925;28;20556;-59
2021/04/20 11:30:31;;;;;;;0.90;0.90;;;;;;;;;;5015537;28;20486;-56
2021/04/20 11:32:59;;;;;;;0.93;0.93;;;;;;;;;;5024131;28;20084;-58
2021/04/20 11:35:26;;;;;;;1.00;1.00;;;;;;;;;;5025117;28;20068;-59
2021/04/20 11:38:00;;;;;;;1.70;0.88;;;;;;;;;;5027099;28;20111;-59
2021/04/20 11:40:28;;;;;;;0.85;0.85;;;;;;;;;;5023730;28;20049;-59
2021/04/20 11:42:56;;;;;;;0.80;0.80;;;;;;;;;;5028933;28;20490;-59
2021/04/20 11:45:23;;;;;;;1.58;0.85;;;;;;;;;;5030368;28;20509;-59
2021/04/20 11:47:55;;;;;;;6.75;0.90;;;;;;;;;;5029360;28;20056;-59
2021/04/20 11:50:22;;;;;;;0.80;0.80;;;;;;;;;;5016567;28;20034;-59
2021/04/20 11:52:59;;;;;;;1.00;1.00;;;;;;;;;;5028209;28;20847;-59
2021/04/20 11:55:29;;;;;;;1.00;1.00;;;;;;;;;;5039252;28;20045;-59
2021/04/20 11:58:19;;;;;;;1.10;1.10;;;;;;;;;;5030315;28;20137;-59
2021/04/20 12:00:46;;;;;;;1.00;1.00;;;;;;;;;;5027383;28;20123;-59
2021/04/20 12:03:13;;;;;;;1.00;1.00;;;;;;;;;;5030988;28;20402;-59
2021/04/20 12:05:41;;;;;;;1.00;1.00;;;;;;;;;;5035434;28;20408;-59
2021/04/20 12:08:09;;;;;;;1.13;1.13;;;;;;;;;;5028080;28;20069;-59
2021/04/20 12:10:36;;;;;;;1.00;1.00;;;;;;;;;;5014859;28;20524;-59
2021/04/20 12:13:03;;;;;;;1.10;1.10;;;;;;;;;;5024798;28;20049;-58
2021/04/20 12:15:29;;;;;;;1.13;1.13;;;;;;;;;;5043391;28;20065;-59
2021/04/20 12:17:57;;;;;;;1.42;1.20;;;;;;;;;;5030600;28;20083;-59
2021/04/20 12:20:25;;;;;;;1.58;1.20;;;;;;;;;;5023673;28;20053;-57
2021/04/20 12:22:55;;;;;;;2.40;2.33;;;;;;;;;;5030509;28;20126;-55
2021/04/20 12:25:22;;;;;;;4.15;3.90;;;;;;;;;;5029994;28;20040;-58
2021/04/20 12:28:02;;;;;;;3.53;3.42;;;;;;;;;;5043295;28;20409;-59
2021/04/20 12:30:29;;;;;;;1.30;1.30;;;;;;;;;;5018792;28;20046;-59
2021/04/20 12:32:57;;;;;;;2.03;2.03;;;;;;;;;;5026999;28;20038;-60
2021/04/20 12:35:29;;;;;;;1.50;1.50;;;;;;;;;;5028795;28;20041;-60
2021/04/20 12:37:58;;;;;;;3.10;3.05;;;;;;;;;;5029545;28;20692;-59
2021/04/20 12:40:25;;;;;;;5.00;4.90;;;;;;;;;;5028610;28;20076;-58
2021/04/20 12:42:59;;;;;;;2.85;2.85;;;;;;;;;;5030579;28;20044;-59
2021/04/20 12:45:26;;;;;;;1.80;1.70;;;;;;;;;;5025894;28;20076;-59
2021/04/20 12:47:54;;;;;;;1.50;1.50;;;;;;;;;;5029368;28;20053;-59
2021/04/20 12:50:21;;;;;;;1.45;1.45;;;;;;;;;;5029118;28;20053;-59
2021/04/20 12:52:48;;;;;;;1.75;1.75;;;;;;;;;;5023841;28;20494;-58
2021/04/20 12:55:22;;;;;;;2.78;2.78;;;;;;;;;;5029407;28;20061;-59
2021/04/20 12:57:50;;;;;;;2.45;2.35;;;;;;;;;;5032068;28;20068;-58
2021/04/20 13:00:16;;;;;;;3.38;3.38;;;;;;;;;;5039307;28;20067;-58
2021/04/20 13:02:47;;;;;;;2.40;2.30;;;;;;;;;;5030381;28;20120;-58
2021/04/20 13:05:14;;;;;;;3.13;1.98;;;;;;;;;;5026470;28;20045;-58
2021/04/20 13:07:41;;;;;;;4.07;3.95;;;;;;;;;;5025280;28;20038;-58
2021/04/20 13:10:15;;;;;;;3.03;2.92;;;;;;;;;;5032405;28;20041;-58
2021/04/20 13:12:43;;;;;;;2.85;2.75;;;;;;;;;;5031068;28;20034;-58
2021/04/20 13:15:09;;;;;;;2.00;2.00;;;;;;;;;;5034619;28;20519;-57
2021/04/20 13:17:36;;;;;;;8.10;7.80;;;;;;;;;;5028423;28;20458;-58
2021/04/20 13:20:07;;;;;;;6.28;6.07;;;;;;;;;;5022023;28;20476;-58
2021/04/20 13:22:33;;;;;;;1.50;1.50;;;;;;;;;;5022399;28;20038;-58
2021/04/20 13:25:07;;;;;;;2.25;1.63;;;;;;;;;;5023306;28;20045;-57
2021/04/20 13:27:36;;;;;;;1.40;1.40;;;;;;;;;;5033364;28;20124;-58
2021/04/20 13:30:02;;;;;;;1.25;1.20;;;;;;;;;;5031126;28;20045;-58
2021/04/20 13:32:29;;;;;;;1.00;1.00;;;;;;;;;;5031942;28;20033;-57
2021/04/20 13:34:57;;;;;;;1.00;1.00;;;;;;;;;;5020941;28;20046;-57
2021/04/20 13:37:27;;;;;;;0.90;0.90;;;;;;;;;;5028405;28;20060;-59
2021/04/20 13:39:55;;;;;;;1.00;1.00;;;;;;;;;;5027243;28;20065;-59
2021/04/20 13:42:27;;;;;;;3.70;0.93;;;;;;;;;;5031527;28;20073;-58
2021/04/20 13:45:22;;;;;;;1.55;1.00;;;;;;;;;;5032679;28;20080;-59
2021/04/20 13:47:49;;;;;;;1.48;0.90;;;;;;;;;;5012089;28;20089;-59
2021/04/20 13:50:33;;;;;;;0.90;0.90;;;;;;;;;;5028573;28;20128;-59
2021/04/20 13:53:04;;;;;;;0.90;0.90;;;;;;;;;;5029141;28;20071;-58
2021/04/20 13:55:32;;;;;;;0.80;0.80;;;;;;;;;;5029891;28;20037;-58
2021/04/20 13:58:01;;;;;;;0.90;0.90;;;;;;;;;;5027672;28;20414;-59
2021/04/20 14:00:30;;;;;;;1.00;1.00;;;;;;;;;;5029449;28;20068;-58
2021/04/20 14:02:57;;;;;;;1.08;1.00;;;;;;;;;;5029667;28;20045;-59
2021/04/20 14:05:41;;;;;;;0.93;0.93;;;;;;;;;;5028690;28;20091;-58
2021/04/20 14:08:09;;;;;;;1.00;0.90;;;;;;;;;;5030549;28;20038;-58
2021/04/20 14:10:36;;;;;;;0.90;0.90;;;;;;;;;;5023920;28;20733;-58
2021/04/20 14:13:13;;;;;;;1.02;0.90;;;;;;;;;;5019451;28;20397;-58
2021/04/20 14:15:41;;;;;;;0.80;0.80;;;;;;;;;;5014107;28;20041;-56
2021/04/20 14:18:17;;;;;;;0.80;0.80;;;;;;;;;;5025147;28;20056;-59
2021/04/20 14:20:46;;;;;;;1.00;1.00;;;;;;;;;;5027083;28;20077;-57
2021/04/20 14:23:14;;;;;;;0.95;0.95;;;;;;;;;;5019213;28;20128;-58
2021/04/20 14:25:40;;;;;;;0.90;0.90;;;;;;;;;;5023744;28;20053;-58
2021/04/20 14:28:07;;;;;;;1.08;1.08;;;;;;;;;;5015512;28;20468;-56
2021/04/20 14:30:34;;;;;;;0.82;0.82;;;;;;;;;;5031970;28;20486;-59
2021/04/20 14:33:01;;;;;;;0.80;0.80;;;;;;;;;;5030975;28;20041;-59
2021/04/20 14:35:32;;;;;;;0.90;0.90;;;;;;;;;;5032785;28;20119;-59
2021/04/20 14:37:59;;;;;;;1.00;1.00;;;;;;;;;;5029304;28;20045;-59
2021/04/20 14:40:27;;;;;;;1.77;1.20;;;;;;;;;;5025209;28;20037;-59
2021/04/20 14:42:57;;;;;;;0.90;0.90;;;;;;;;;;5023141;28;20049;-59
2021/04/20 14:45:25;;;;;;;1.00;1.00;;;;;;;;;;5018793;28;20049;-59
2021/04/20 14:47:54;;;;;;;0.95;0.85;;;;;;;;;;5032417;28;20050;-59